Meteo Giornale » Osservazioni meteo Francia » Beauvais

ore: 13:00 - Osservazioni Meteo Beauvais
Lat. 49° 28' N Lon. 2° 7' E Alt. 109 metri s.l.m.

nuvoloso Europe/Paris

22 °C

Nuvoloso

Temp. 24 Ore

9 °C

23 °C

Nord

5.5 Km/h

Dew point 13 °C

Umidità 56 %

Visibilità  10 Km

Il sole sorge alle ore 05:42

Il sole tramonta alle ore 22:02

Data e Ora Cielo e Fenomeni T °C DP °C Um. % Pres. hPa Vis. km Vento km/h
Oggi h: 13:00 nuvoloso Nuvoloso 22 13 56 1019 10 N 5.5
Oggi h: 12:30 molto_nuvoloso Molto Nuvoloso 22 13 56 1019 10 S 7.4
Oggi h: 12:00 molto_nuvoloso Molto Nuvoloso 23 14 56 1019 10 S/SO 7.4
Oggi h: 11:30 nuvoloso Nuvoloso 23 14 56 1020 10 S 11.1
Oggi h: 11:00 poco_nuvoloso Poco Nuvoloso 21 12 56 1020 10 S 11.1
Oggi h: 10:30 poco_nuvoloso Poco Nuvoloso 21 14 64 1020 10 S/SE 7.4
Oggi h: 10:00 sereno Sereno 20 14 68 1020 10 S 7.4
Oggi h: 09:30 sereno Sereno 20 14 68 1020 10 N 0
Oggi h: 09:00 sereno Sereno 16 14 87 1020 10 N 0
Oggi h: 08:30 molto_nuvoloso Molto Nuvoloso 15 13 87 1020 10 N 0
Oggi h: 08:00 poco_nuvoloso Poco Nuvoloso 14 12 87 1020 10 N 3.7
Oggi h: 07:30 sereno Sereno 13 13 100 1020 10 N 0
Oggi h: 07:00 sereno Sereno 11 10 93 1020 10 N 0
Oggi h: 06:30 sereno Sereno 9 8 93 1020 10 N 0
Oggi h: 06:00 poco_nuvoloso Poco Nuvoloso 9 8 93 1020 10 N 0
Oggi h: 05:30 sereno Sereno 9 9 100 1020 10 N 0
Oggi h: 05:00 sereno Sereno 9 8 93 1020 10 N 0
Oggi h: 04:30 sereno Sereno 9 8 93 1020 10 N 0
Oggi h: 04:00 sereno Sereno 9 9 100 1020 10 N 0
Oggi h: 03:30 sereno Sereno 9 8 93 1020 10 N 0
Oggi h: 03:00 sereno Sereno 10 9 93 1020 10 N 3.7
Oggi h: 02:30 sereno Sereno 10 8 87 1020 10 N 3.7
Oggi h: 02:00 sereno Sereno 10 9 93 1020 10 N 1.8
Oggi h: 01:30 sereno Sereno 11 9 87 1021 10 N 3.7
Oggi h: 01:00 sereno Sereno 11 10 93 1020 10 N 0
Oggi h: 00:30 sereno Sereno 12 9 81 1021 10 N 3.7
Oggi h: 00:00 sereno Sereno 13 10 81 1021 10 N 0
Ieri h: 23:30 sereno Sereno 15 11 76 1021 10 N 0
Ieri h: 23:00 sereno Sereno 15 11 76 1021 10 N 0
Ieri h: 22:30 sereno Sereno 16 11 72 1020 10 N 5.5
Ieri h: 22:00 sereno Sereno 18 12 67 1020 10 N 5.5
Ieri h: 21:30 sereno Sereno 19 12 63 1020 10 SO 9.3
Ieri h: 21:00 sereno Sereno 20 11 56 1020 10 SO 11.1
Ieri h: 20:30 sereno Sereno 21 11 52 1020 10 SO 13
Ieri h: 20:00 poco_nuvoloso Poco Nuvoloso 21 12 56 1020 10 SO 13
Ieri h: 19:30 nuvoloso Nuvoloso 21 11 52 1020 10 SO 16.7
Ieri h: 19:00 nuvoloso Nuvoloso 21 11 52 1020 10 SO 16.7
Ieri h: 18:30 poco_nuvoloso Poco Nuvoloso 22 12 53 1020 10 SO 16.7
Ieri h: 18:00 nuvoloso Nuvoloso 21 12 56 1020 10 S 18.5
Ieri h: 17:30 molto_nuvoloso Molto Nuvoloso 21 11 52 1020 10 S/SO 18.5
Ieri h: 17:00 molto_nuvoloso Molto Nuvoloso 21 13 60 1020 10 S 22.2
Ieri h: 16:30 molto_nuvoloso Molto Nuvoloso 22 13 56 1020 10 S/SO 24
Ieri h: 16:00 molto_nuvoloso Molto Nuvoloso 21 11 52 1021 10 S/SO 22.2
Ieri h: 15:30 molto_nuvoloso Molto Nuvoloso 21 12 56 1021 10 S/SO 18.5
Ieri h: 15:00 nuvoloso Nuvoloso 21 13 60 1021 10 S 22.2
Ieri h: 14:30 molto_nuvoloso Molto Nuvoloso 21 13 60 1021 10 S/SO 22.2
Ieri h: 14:00 molto_nuvoloso Molto Nuvoloso 20 13 64 1021 10 S/SO 22.2